Airfield :







YOU CAN JOIN US ON...

 
LOGIN :

Register | Disclaimer

   EN    FR    IT 

 









Legend :    VFR   Marginal VFR   IFR   Intensive IFR   Very Intensive IFR
Visi :
Ceiling :
>= 8 km
>= 3000ft
5 to 8 km
1000 to 3000 ft
1500m to 5 km
500 to 1000 ft
800 to 1500m
200 to 500 ft
< 800m
< 200 ft
Symbols :   Thunderstorms  Fog  Heavy snow  Heavy precipitations  Wind > 20 kt







- Airport Elevation : 84 ft
- IATA code : YJT


CYJT - Stephenville

CURRENT METAR :
  • 201600Z 19004KT 12SM -RA SCT008 OVC018 04/03 A3012 RMK SF3ST5 SLP201

EXPIRED METARs :
  • 201500Z 25003KT 15SM -RA FEW012 OVC020 03/03 A3013 RMK SF2ST6 SLP204
  • 201400Z 08003KT 15SM -RA FEW012 OVC020 05/03 A3011 RMK SF1ST7 PRESRR SLP197

TAF TAF CYJT
Valid from the 20 at 12:00 until the 21 at 12:00 UTC


201138Z 2012/2112 VRB03KT 6SM -RA BR SCT002 BKN008 OVC015
TEMPO 2012/2015 3SM -DZ BR FEW002 SCT008 OVC015
FM201500 04005KT 6SM -RA BR SCT020 OVC040
TEMPO 2015/2102 4SM -RA BR OVC020
BECMG 2022/2024 07008KT
FM210400 07015KT 4SM -RA BR OVC015 RMK NXT FCST BY 201800Z
CZQX FIR / North America



MET'MAP, your aeronautical weather chart ! - Copyright ORBIFLY December 2007 - Disclaimer

ORBIFLY MET'MAP TEAM :

Programming & Development : Alexandra Zaïnal
Concept & Development : Baudouin d'Aumeries
Co-Development & Prog : Marc-Olivier Méhu
Technical & hardware support : Manuel Goepfert

Contact : metmap@orbifly.com




SOURCES & CREDITS :

   NOAA